Time;durP1;ratioP1;P1;durP2;ratioP2;P2;SDS_P1;SDS_P2;PMS_P1;PMS_P2;Temp;Humidity;BMP_temperature;BMP_pressure;BME280_temperature;BME280_humidity;BME280_pressure;Samples;Min_cycle;Max_cycle;Signal;HPM_P1;HPM_P2
2022/09/23 00:01:20;;;;;;;7.60;3.23;;;;;;;13.41;62.83;100851.13;5009975;28;20224;-63
2022/09/23 00:03:49;;;;;;;6.33;3.57;;;;;;;13.36;62.94;100858.78;5008956;28;20199;-63
2022/09/23 00:06:19;;;;;;;6.20;3.30;;;;;;;13.33;63.00;100854.59;5010272;28;20221;-63
2022/09/23 00:08:48;;;;;;;8.07;3.97;;;;;;;13.31;63.07;100856.56;5010598;28;20275;-63
2022/09/23 00:11:18;;;;;;;6.13;3.50;;;;;;;13.24;63.29;100858.19;5010423;28;20213;-63
2022/09/23 00:13:48;;;;;;;7.93;3.70;;;;;;;13.28;63.26;100858.72;5011474;28;20205;-63
2022/09/23 00:16:21;;;;;;;7.87;3.57;;;;;;;13.23;63.47;100853.00;5010289;28;20205;-63
2022/09/23 00:18:49;;;;;;;6.33;3.20;;;;;;;13.20;63.72;100851.47;5001020;28;20251;-63
2022/09/23 00:21:18;;;;;;;7.17;3.50;;;;;;;13.13;63.89;100850.41;5007404;28;20260;-63
2022/09/23 00:23:46;;;;;;;5.27;3.30;;;;;;;13.04;64.26;100848.69;5014017;28;20654;-63
2022/09/23 00:26:15;;;;;;;7.43;2.93;;;;;;;13.10;63.93;100854.25;5014330;28;20213;-63
2022/09/23 00:28:43;;;;;;;10.57;3.60;;;;;;;13.08;63.80;100850.91;5013671;28;20260;-63
2022/09/23 00:31:14;;;;;;;5.40;2.60;;;;;;;13.08;63.63;100848.22;5013950;28;20767;-63
2022/09/23 00:33:43;;;;;;;5.10;3.00;;;;;;;13.13;63.53;100851.28;5025927;28;20235;-63
2022/09/23 00:36:15;;;;;;;11.30;3.83;;;;;;;13.15;63.20;100851.97;5013312;28;20604;-63
2022/09/23 00:38:43;;;;;;;7.10;3.17;;;;;;;13.10;63.65;100850.75;5012056;28;20205;-65
2022/09/23 00:41:13;;;;;;;5.90;3.50;;;;;;;12.99;63.82;100841.16;5009990;28;20214;-63
2022/09/23 00:43:42;;;;;;;4.93;2.80;;;;;;;13.00;63.76;100845.50;5014108;28;20296;-64
2022/09/23 00:46:16;;;;;;;7.13;3.33;;;;;;;12.99;63.92;100843.84;5015493;28;20220;-62
2022/09/23 00:48:46;;;;;;;7.17;3.53;;;;;;;12.96;63.88;100838.81;5013421;28;20210;-64
2022/09/23 00:51:18;;;;;;;6.73;3.10;;;;;;;12.89;64.31;100845.75;5007745;28;20296;-62
2022/09/23 00:53:47;;;;;;;4.97;2.87;;;;;;;12.85;64.71;100840.88;5013590;28;20626;-62
2022/09/23 00:56:16;;;;;;;6.20;3.00;;;;;;;12.85;64.58;100844.38;5013751;28;20287;-62
2022/09/23 00:58:46;;;;;;;6.53;2.90;;;;;;;12.93;63.97;100836.44;5013759;28;20236;-64
2022/09/23 01:01:13;;;;;;;6.77;3.33;;;;;;;12.97;63.55;100837.81;5013171;28;20707;-62
2022/09/23 01:03:44;;;;;;;7.13;3.20;;;;;;;12.99;63.40;100835.84;5012620;28;20221;-62
2022/09/23 01:06:14;;;;;;;4.10;2.57;;;;;;;12.93;63.89;100820.47;5010956;28;20555;-62
2022/09/23 01:08:45;;;;;;;6.17;2.60;;;;;;;12.91;63.60;100817.16;5006906;28;20218;-63
2022/09/23 01:11:24;;;;;;;4.53;2.70;;;;;;;12.87;63.77;100823.75;5013002;28;20256;-62
2022/09/23 01:14:01;;;;;;;4.67;2.97;;;;;;;12.80;63.96;100820.88;5013108;28;20236;-63
2022/09/23 01:16:36;;;;;;;4.90;2.43;;;;;;;12.82;64.15;100818.06;5000473;28;20264;-63
2022/09/23 01:19:21;;;;;;;6.30;3.00;;;;;;;12.78;64.15;100816.69;5013583;28;20214;-63
2022/09/23 01:21:55;;;;;;;7.70;2.67;;;;;;;12.89;63.56;100808.47;5009614;28;20211;-63
2022/09/23 01:24:47;;;;;;;5.03;2.53;;;;;;;12.87;63.58;100807.78;5013054;28;20208;-63
2022/09/23 01:27:25;;;;;;;6.07;2.77;;;;;;;12.88;63.78;100812.13;5007600;28;20224;-63
2022/09/23 01:30:09;;;;;;;5.70;2.93;;;;;;;12.85;64.27;100809.75;5013037;28;20206;-63
2022/09/23 01:33:04;;;;;;;4.80;3.00;;;;;;;12.92;63.92;100813.50;5012796;28;20241;-63
2022/09/23 01:35:55;;;;;;;5.53;2.90;;;;;;;12.97;63.85;100805.03;5002515;28;20236;-63
2022/09/23 01:38:35;;;;;;;4.53;3.00;;;;;;;13.02;63.46;100811.56;5010726;28;20647;-63
2022/09/23 01:41:12;;;;;;;5.93;2.70;;;;;;;13.08;63.08;100808.28;5005163;28;20264;-63
2022/09/23 01:43:48;;;;;;;5.87;3.13;;;;;;;13.09;62.82;100812.63;5010510;28;20571;-63
2022/09/23 01:46:21;;;;;;;6.70;3.47;;;;;;;13.13;62.32;100806.00;5014687;28;20213;-63
2022/09/23 01:48:56;;;;;;;7.43;3.03;;;;;;;13.06;62.44;100804.09;5013200;28;20573;-63
2022/09/23 01:51:27;;;;;;;6.10;2.83;;;;;;;12.99;62.95;100801.25;5011495;28;20264;-64
2022/09/23 01:54:02;;;;;;;6.77;2.93;;;;;;;12.99;62.89;100803.91;5012165;28;20209;-63
2022/09/23 01:56:35;;;;;;;4.00;2.60;;;;;;;12.97;62.92;100803.22;5012369;28;20235;-64
2022/09/23 01:59:11;;;;;;;5.07;2.70;;;;;;;12.94;63.10;100800.84;5012686;28;20205;-63
2022/09/23 02:01:43;;;;;;;5.20;3.13;;;;;;;12.89;63.32;100803.16;5011432;28;20275;-64
2022/09/23 02:04:19;;;;;;;8.13;2.93;;;;;;;12.83;63.62;100798.47;5012417;28;20296;-63
2022/09/23 02:06:52;;;;;;;6.63;2.87;;;;;;;12.87;63.58;100797.16;5010692;28;20241;-64
2022/09/23 02:09:24;;;;;;;5.17;2.80;;;;;;;12.81;63.74;100801.28;5005115;28;20208;-63
2022/09/23 02:11:59;;;;;;;4.67;2.50;;;;;;;12.83;64.05;100801.13;5011506;28;20260;-63
2022/09/23 02:14:33;;;;;;;6.77;3.93;;;;;;;12.87;63.88;100805.13;5012127;28;20208;-63
2022/09/23 02:17:07;;;;;;;5.77;3.10;;;;;;;12.88;63.54;100798.81;5011709;28;20261;-63
2022/09/23 02:19:43;;;;;;;3.97;2.47;;;;;;;12.91;63.29;100798.53;5012029;28;20211;-63
2022/09/23 02:22:16;;;;;;;6.03;2.80;;;;;;;12.86;63.37;100798.13;5010709;28;20209;-64
2022/09/23 02:24:44;;;;;;;5.03;2.80;;;;;;;12.80;63.49;100796.09;5011790;28;20205;-63
2022/09/23 02:27:21;;;;;;;3.40;2.20;;;;;;;12.77;63.70;100794.56;5011769;28;20290;-64
2022/09/23 02:29:55;;;;;;;6.67;2.30;;;;;;;12.72;63.77;100796.03;5011732;28;20209;-63
2022/09/23 02:32:28;;;;;;;7.80;2.90;;;;;;;12.75;63.78;100785.91;5011045;28;20253;-64
2022/09/23 02:35:02;;;;;;;7.83;3.00;;;;;;;12.85;63.15;100791.13;5009151;28;20249;-64
2022/09/23 02:37:39;;;;;;;6.37;3.10;;;;;;;12.78;63.49;100790.94;5011316;28;20678;-63
2022/09/23 02:40:14;;;;;;;5.63;2.90;;;;;;;12.74;63.52;100786.09;5010774;28;20270;-63
2022/09/23 02:43:04;;;;;;;6.37;3.03;;;;;;;12.79;63.29;100775.78;5011366;28;20236;-63
2022/09/23 02:45:34;;;;;;;4.50;2.50;;;;;;;12.78;63.43;100790.09;5003902;28;20197;-63
2022/09/23 02:48:06;;;;;;;5.40;3.37;;;;;;;12.80;63.44;100790.78;5011159;28;20299;-64
2022/09/23 02:50:37;;;;;;;7.57;2.90;;;;;;;12.80;63.52;100780.97;5010940;28;20205;-64
2022/09/23 02:53:07;;;;;;;3.77;2.67;;;;;;;12.82;63.24;100775.50;5014515;28;20583;-63
2022/09/23 02:55:35;;;;;;;5.00;3.30;;;;;;;12.78;63.29;100774.13;5008272;28;20736;-63
2022/09/23 02:58:04;;;;;;;4.40;2.87;;;;;;;12.74;63.57;100772.78;5010587;28;20241;-63
2022/09/23 03:00:44;;;;;;;5.00;3.10;;;;;;;12.72;63.77;100774.75;5010036;28;20245;-63
2022/09/23 03:03:23;;;;;;;5.83;3.30;;;;;;;12.71;63.66;100773.06;5010205;28;20296;-63
2022/09/23 03:05:56;;;;;;;5.63;3.10;;;;;;;12.64;63.86;100772.88;5009527;28;20251;-63
2022/09/23 03:08:35;;;;;;;6.77;3.40;;;;;;;12.70;63.59;100769.56;5009822;28;20254;-63
2022/09/23 03:11:06;;;;;;;8.23;3.97;;;;;;;12.67;63.60;100772.53;5008705;28;20243;-63
2022/09/23 03:13:49;;;;;;;5.83;3.00;;;;;;;12.69;63.53;100767.91;5011198;28;20213;-63
2022/09/23 03:16:29;;;;;;;5.20;3.00;;;;;;;12.66;63.74;100770.91;5011116;28;20684;-64
2022/09/23 03:19:12;;;;;;;6.30;3.23;;;;;;;12.66;63.55;100768.22;5011033;28;20208;-63
2022/09/23 03:21:46;;;;;;;5.83;3.17;;;;;;;12.66;63.66;100768.22;5007754;28;20213;-63
2022/09/23 03:24:15;;;;;;;10.80;4.57;;;;;;;12.64;63.71;100764.03;5010875;28;20231;-63
2022/09/23 03:26:46;;;;;;;7.53;3.27;;;;;;;12.60;63.86;100766.16;5010626;28;20208;-63
2022/09/23 03:29:16;;;;;;;7.47;3.40;;;;;;;12.58;63.86;100767.28;5010954;28;20205;-63
2022/09/23 03:31:44;;;;;;;6.87;3.03;;;;;;;12.61;63.71;100769.66;4996329;28;20243;-64
2022/09/23 03:34:16;;;;;;;8.30;3.60;;;;;;;12.59;63.80;100764.50;5003806;28;20673;-62
2022/09/23 03:36:52;;;;;;;6.10;3.33;;;;;;;12.59;63.53;100759.16;5009453;28;20212;-63
2022/09/23 03:39:29;;;;;;;5.77;3.70;;;;;;;12.50;64.01;100764.56;5010799;28;20593;-62
2022/09/23 03:42:00;;;;;;;6.87;3.70;;;;;;;12.50;63.94;100749.44;4996519;28;20270;-63
2022/09/23 03:44:29;;;;;;;7.23;3.73;;;;;;;12.51;63.88;100750.28;5012220;28;20260;-63
2022/09/23 03:46:59;;;;;;;10.10;3.60;;;;;;;12.38;64.34;100746.22;5010537;28;20652;-63
2022/09/23 03:49:31;;;;;;;8.57;3.67;;;;;;;12.37;64.61;100751.69;5012971;28;20684;-63
2022/09/23 03:52:02;;;;;;;5.80;3.30;;;;;;;12.37;64.48;100754.34;5008425;28;20337;-63
2022/09/23 03:54:29;;;;;;;5.70;3.57;;;;;;;12.37;64.42;100746.38;5008307;28;20247;-63
2022/09/23 03:56:58;;;;;;;5.20;3.43;;;;;;;12.35;64.69;100743.00;5011229;28;20326;-63
2022/09/23 03:59:26;;;;;;;10.20;3.43;;;;;;;12.37;64.68;100743.69;5014395;28;20224;-63
2022/09/23 04:01:54;;;;;;;7.17;3.57;;;;;;;12.28;64.95;100745.44;5013929;28;20202;-63
2022/09/23 04:04:21;;;;;;;5.87;4.03;;;;;;;12.22;65.08;100746.06;5014788;28;20228;-63
2022/09/23 04:06:49;;;;;;;5.67;3.90;;;;;;;12.25;64.97;100751.06;5013543;28;20204;-63
2022/09/23 04:09:18;;;;;;;6.70;3.47;;;;;;;12.20;64.86;100747.19;5014845;28;20213;-63
2022/09/23 04:11:46;;;;;;;4.63;3.20;;;;;;;12.16;64.94;100741.34;5014005;28;20211;-63
2022/09/23 04:14:14;;;;;;;6.27;3.83;;;;;;;12.15;64.72;100747.63;5014294;28;20213;-63
2022/09/23 04:16:42;;;;;;;7.37;3.37;;;;;;;12.12;64.83;100750.63;5014605;28;20747;-63
2022/09/23 04:19:10;;;;;;;5.90;3.67;;;;;;;12.13;64.90;100748.81;5013859;28;20251;-63
2022/09/23 04:21:39;;;;;;;5.53;3.20;;;;;;;12.08;65.25;100746.56;5012837;28;20292;-63
2022/09/23 04:24:08;;;;;;;6.07;3.13;;;;;;;12.04;65.22;100747.88;5013855;28;20217;-63
2022/09/23 04:26:38;;;;;;;7.17;3.83;;;;;;;12.05;65.24;100746.88;5019706;28;20285;-63
2022/09/23 04:29:06;;;;;;;4.17;2.90;;;;;;;11.98;65.10;100751.97;5014333;28;20573;-63
2022/09/23 04:31:34;;;;;;;6.93;3.63;;;;;;;11.95;64.92;100754.94;5013346;28;20251;-63
2022/09/23 04:34:02;;;;;;;7.00;3.63;;;;;;;11.94;65.21;100747.94;5013329;28;20669;-63
2022/09/23 04:36:30;;;;;;;6.40;3.70;;;;;;;11.92;65.59;100746.41;5013399;28;20286;-63
2022/09/23 04:38:57;;;;;;;5.67;3.47;;;;;;;11.96;65.46;100745.16;5012565;28;20215;-64
2022/09/23 04:41:25;;;;;;;8.27;3.90;;;;;;;11.99;65.53;100750.13;5013261;28;20241;-64
2022/09/23 04:43:56;;;;;;;5.20;3.53;;;;;;;11.91;65.98;100742.09;5013943;28;20257;-63
2022/09/23 04:46:24;;;;;;;5.67;3.63;;;;;;;11.93;65.92;100746.28;5015342;28;20204;-63
2022/09/23 04:48:51;;;;;;;9.43;3.67;;;;;;;11.94;65.73;100744.47;5013559;28;20222;-63
2022/09/23 04:51:21;;;;;;;9.23;4.50;;;;;;;11.99;65.51;100750.13;5012883;28;20265;-63
2022/09/23 04:53:51;;;;;;;7.13;3.60;;;;;;;11.91;66.04;100752.72;5013086;28;20664;-63
2022/09/23 04:56:21;;;;;;;6.07;3.57;;;;;;;11.84;66.37;100751.66;5014057;28;20203;-63
2022/09/23 04:58:50;;;;;;;8.57;4.03;;;;;;;11.77;66.67;100751.41;5013482;28;20286;-63
2022/09/23 05:01:23;;;;;;;17.20;5.73;;;;;;;11.77;66.77;100761.22;5012530;28;20239;-63
2022/09/23 05:03:52;;;;;;;5.83;3.77;;;;;;;11.86;66.60;100755.00;5015472;28;20205;-63
2022/09/23 05:06:21;;;;;;;6.93;3.77;;;;;;;11.87;66.37;100756.69;5013440;28;20673;-63
2022/09/23 05:08:51;;;;;;;10.10;4.20;;;;;;;11.85;66.39;100753.31;5012089;28;20261;-63
2022/09/23 05:11:19;;;;;;;6.30;3.63;;;;;;;11.82;66.38;100750.94;5012215;28;20233;-63
2022/09/23 05:13:47;;;;;;;7.10;4.40;;;;;;;11.75;66.68;100758.69;5013856;28;20264;-63
2022/09/23 05:16:15;;;;;;;8.43;3.97;;;;;;;11.68;67.00;100766.41;5013368;28;20615;-63
2022/09/23 05:18:45;;;;;;;7.30;4.73;;;;;;;11.70;66.91;100761.75;5013189;28;20216;-63
2022/09/23 05:21:14;;;;;;;9.40;4.43;;;;;;;11.67;66.69;100767.38;5012761;28;20581;-63
2022/09/23 05:23:46;;;;;;;6.80;3.23;;;;;;;11.68;66.22;100766.41;5012054;28;20277;-63
2022/09/23 05:26:15;;;;;;;7.20;3.87;;;;;;;11.66;65.81;100764.84;5011376;28;20278;-63
2022/09/23 05:28:43;;;;;;;11.60;3.93;;;;;;;11.69;65.85;100769.88;5020371;28;20592;-63
2022/09/23 05:31:13;;;;;;;8.77;4.30;;;;;;;11.61;65.85;100770.59;5011876;28;20234;-63
2022/09/23 05:33:50;;;;;;;6.53;4.40;;;;;;;11.57;66.05;100771.06;5010576;28;20208;-63
2022/09/23 05:36:19;;;;;;;14.23;5.00;;;;;;;11.60;66.09;100774.28;5012058;28;20215;-63
2022/09/23 05:38:48;;;;;;;11.03;4.70;;;;;;;11.62;65.99;100768.78;5012070;28;20236;-63
2022/09/23 05:41:17;;;;;;;8.03;4.33;;;;;;;11.64;66.44;100767.66;5011923;28;20215;-64
2022/09/23 05:43:46;;;;;;;10.17;4.13;;;;;;;11.66;66.34;100773.66;5012749;28;20198;-64
2022/09/23 05:46:16;;;;;;;6.93;4.10;;;;;;;11.64;65.86;100772.13;5013605;28;20246;-64
2022/09/23 05:48:44;;;;;;;9.20;4.57;;;;;;;11.66;65.58;100764.84;5012192;28;20865;-63
2022/09/23 05:51:16;;;;;;;8.37;4.70;;;;;;;11.72;65.18;100774.03;5011864;28;20227;-63
2022/09/23 05:53:44;;;;;;;9.53;4.60;;;;;;;11.77;65.08;100771.84;5012494;28;20206;-64
2022/09/23 05:56:12;;;;;;;8.37;4.67;;;;;;;11.78;65.09;100773.50;5012310;28;20266;-62
2022/09/23 05:58:40;;;;;;;6.03;4.23;;;;;;;11.78;65.59;100776.16;5012200;28;20668;-64
2022/09/23 06:01:12;;;;;;;9.77;5.33;;;;;;;11.75;65.92;100773.78;5009429;28;20245;-62
2022/09/23 06:03:40;;;;;;;10.53;4.40;;;;;;;11.75;66.30;100773.78;5004862;28;20211;-63
2022/09/23 06:06:13;;;;;;;11.30;5.13;;;;;;;11.92;65.79;100770.34;5012275;28;20287;-65
2022/09/23 06:08:42;;;;;;;12.23;5.17;;;;;;;11.96;65.96;100774.38;5012399;28;20222;-62
2022/09/23 06:11:11;;;;;;;7.83;4.47;;;;;;;11.99;65.96;100774.91;5011796;28;20218;-63
2022/09/23 06:13:39;;;;;;;10.53;4.80;;;;;;;12.05;66.02;100771.63;5010860;28;20203;-64
2022/09/23 06:16:09;;;;;;;11.40;5.00;;;;;;;12.09;66.16;100772.19;5011407;28;20214;-64
2022/09/23 06:18:39;;;;;;;10.90;4.90;;;;;;;12.13;65.92;100770.91;5011649;28;20269;-64
2022/09/23 06:21:07;;;;;;;13.90;5.23;;;;;;;12.18;66.08;100763.31;5022318;28;20358;-64
2022/09/23 06:23:35;;;;;;;12.93;5.07;;;;;;;12.22;66.00;100761.19;5011999;28;20612;-64
2022/09/23 06:26:10;;;;;;;13.20;4.70;;;;;;;12.23;65.87;100762.84;5011833;28;20226;-63
2022/09/23 06:28:39;;;;;;;6.80;4.60;;;;;;;12.26;66.03;100765.19;5011054;28;20199;-64
2022/09/23 06:31:10;;;;;;;6.10;4.30;;;;;;;12.34;65.46;100767.94;5011065;28;20593;-65
2022/09/23 06:33:40;;;;;;;6.77;4.90;;;;;;;12.35;65.76;100756.31;5011875;28;20211;-62
2022/09/23 06:36:09;;;;;;;10.87;5.27;;;;;;;12.41;65.36;100748.53;5002599;28;20219;-62
2022/09/23 06:38:38;;;;;;;12.97;5.43;;;;;;;12.43;65.36;100759.88;5011476;28;20589;-62
2022/09/23 06:41:07;;;;;;;9.03;4.73;;;;;;;12.49;64.95;100762.94;5009004;28;20795;-62
2022/09/23 06:43:35;;;;;;;10.10;4.53;;;;;;;12.48;65.07;100755.94;5010478;28;20609;-63
2022/09/23 06:46:04;;;;;;;7.97;4.83;;;;;;;12.52;64.99;100762.59;5011310;28;20228;-63
2022/09/23 06:48:34;;;;;;;9.77;5.23;;;;;;;12.59;64.95;100755.66;5011593;28;20292;-63
2022/09/23 06:51:06;;;;;;;5.77;4.20;;;;;;;12.59;64.71;100763.66;5011212;28;20244;-63
2022/09/23 06:53:34;;;;;;;8.10;4.90;;;;;;;12.57;64.59;100760.34;5011500;28;20208;-63
2022/09/23 06:56:03;;;;;;;6.63;4.57;;;;;;;12.62;64.48;100758.88;5009818;28;20220;-63
2022/09/23 06:58:33;;;;;;;15.50;5.17;;;;;;;12.67;64.47;100761.06;5007754;28;20286;-63
2022/09/23 07:01:02;;;;;;;7.97;5.30;;;;;;;12.65;64.72;100773.69;5010942;28;20207;-63
2022/09/23 07:03:30;;;;;;;9.60;4.87;;;;;;;12.67;64.42;100761.88;5011155;28;20249;-63
2022/09/23 07:05:59;;;;;;;7.73;4.67;;;;;;;12.73;64.27;100768.44;5004820;28;20217;-63
2022/09/23 07:08:29;;;;;;;10.07;4.47;;;;;;;12.80;63.95;100769.50;5011752;28;20268;-63
2022/09/23 07:10:58;;;;;;;7.10;4.63;;;;;;;12.85;63.77;100761.84;5012872;28;20213;-63
2022/09/23 07:13:27;;;;;;;6.83;4.60;;;;;;;12.84;64.10;100765.50;5022066;28;20213;-63
2022/09/23 07:15:59;;;;;;;9.97;5.47;;;;;;;12.91;63.95;100763.09;5008702;28;20209;-63
2022/09/23 07:18:29;;;;;;;9.53;4.47;;;;;;;12.93;63.72;100772.56;5012195;28;20236;-63
2022/09/23 07:21:08;;;;;;;6.43;4.40;;;;;;;12.97;63.26;100765.94;5008355;28;20216;-63
2022/09/23 07:23:36;;;;;;;10.37;5.17;;;;;;;13.01;63.27;100775.31;5021065;28;20213;-63
2022/09/23 07:26:06;;;;;;;8.67;4.67;;;;;;;13.09;62.98;100771.84;5015757;28;20256;-63
2022/09/23 07:28:34;;;;;;;7.10;4.90;;;;;;;13.08;63.19;100771.03;5011640;28;20209;-63
2022/09/23 07:31:09;;;;;;;13.47;5.07;;;;;;;13.12;63.17;100772.34;5002944;28;20235;-63
2022/09/23 07:33:42;;;;;;;9.17;5.40;;;;;;;13.08;63.74;100778.16;5011704;28;20208;-63
2022/09/23 07:36:12;;;;;;;7.57;5.07;;;;;;;13.09;63.82;100775.34;5014942;28;20216;-64
2022/09/23 07:38:40;;;;;;;9.10;5.40;;;;;;;13.19;63.60;100772.63;5014439;28;20260;-64
2022/09/23 07:41:14;;;;;;;10.87;5.23;;;;;;;13.23;63.32;100770.47;5016593;28;20223;-63
2022/09/23 07:43:43;;;;;;;8.87;5.27;;;;;;;13.29;62.98;100767.16;5016677;28;20248;-63
2022/09/23 07:46:15;;;;;;;7.80;5.13;;;;;;;13.36;62.62;100773.53;5018220;28;20618;-63
2022/09/23 07:48:44;;;;;;;8.53;4.87;;;;;;;13.46;62.81;100784.88;5016083;28;20197;-64
2022/09/23 07:51:16;;;;;;;6.70;4.90;;;;;;;13.50;62.04;100773.78;5013856;28;20216;-63
2022/09/23 07:53:47;;;;;;;10.53;5.20;;;;;;;13.56;61.71;100780.28;5015037;28;20665;-63
2022/09/23 07:56:15;;;;;;;10.33;5.37;;;;;;;13.53;61.72;100780.63;5014648;28;20213;-64
2022/09/23 07:58:42;;;;;;;8.00;4.70;;;;;;;13.56;61.45;100780.28;5015908;28;20263;-64
2022/09/23 08:01:12;;;;;;;14.17;4.60;;;;;;;13.62;60.99;100776.16;5015787;28;20221;-64
2022/09/23 08:03:40;;;;;;;7.67;4.90;;;;;;;13.70;60.40;100778.84;5015610;28;20216;-64
2022/09/23 08:06:11;;;;;;;8.43;4.23;;;;;;;13.76;60.14;100789.69;5012035;28;20210;-64
2022/09/23 08:08:42;;;;;;;8.57;4.40;;;;;;;13.85;59.65;100787.91;5015031;28;20210;-64
2022/09/23 08:11:13;;;;;;;6.40;4.50;;;;;;;13.88;59.52;100791.09;5015610;28;20294;-64
2022/09/23 08:13:41;;;;;;;10.23;4.97;;;;;;;14.00;59.64;100788.09;5015584;28;20221;-64
2022/09/23 08:16:09;;;;;;;7.07;4.60;;;;;;;14.13;59.21;100783.97;5016131;28;20205;-62
2022/09/23 08:18:38;;;;;;;12.03;4.83;;;;;;;14.31;58.85;100783.84;5014680;28;20239;-62
2022/09/23 08:21:06;;;;;;;7.17;4.57;;;;;;;14.67;57.95;100781.75;5014653;28;20214;-63
2022/09/23 08:23:33;;;;;;;7.33;4.90;;;;;;;14.81;57.52;100780.22;5013634;28;20267;-62
2022/09/23 08:26:03;;;;;;;8.90;4.77;;;;;;;15.18;56.62;100788.53;5014541;28;20216;-62
2022/09/23 08:28:33;;;;;;;10.17;5.03;;;;;;;15.56;55.59;100791.47;5006948;28;20204;-62
2022/09/23 08:31:01;;;;;;;7.13;4.87;;;;;;;15.98;54.20;100789.25;5014615;28;20251;-64
2022/09/23 08:33:29;;;;;;;8.17;4.27;;;;;;;16.99;52.40;100781.00;5014965;28;20233;-63
2022/09/23 08:36:01;;;;;;;5.57;4.07;;;;;;;18.82;47.59;100783.50;5007091;28;20213;-63
2022/09/23 08:38:29;;;;;;;7.37;3.83;;;;;;;20.60;43.27;100781.66;5013482;28;20241;-62
2022/09/23 08:41:07;;;;;;;8.40;4.37;;;;;;;20.80;41.68;100765.50;5006404;28;20212;-63
2022/09/23 08:43:38;;;;;;;7.20;3.93;;;;;;;20.19;43.34;100776.41;5013725;28;20202;-63
2022/09/23 08:46:10;;;;;;;8.93;3.90;;;;;;;19.71;44.17;100768.34;5016478;28;20217;-63
2022/09/23 08:48:43;;;;;;;7.70;4.70;;;;;;;21.37;41.49;100764.88;5014734;28;20260;-63
2022/09/23 08:51:15;;;;;;;6.50;3.87;;;;;;;25.22;34.74;100768.66;5014400;28;20585;-64
2022/09/23 08:53:44;;;;;;;6.63;3.72;;;;;;;28.71;29.56;100767.06;5014417;28;20554;-64
2022/09/23 08:56:14;;;;;;;7.90;4.10;;;;;;;31.41;25.90;100762.13;5012205;28;20240;-64
2022/09/23 08:58:53;;;;;;;12.43;4.28;;;;;;;32.62;23.93;100757.09;5014487;28;20588;-63
2022/09/23 09:01:25;;;;;;;8.88;4.57;;;;;;;33.64;22.78;100754.94;5025953;28;20213;-63
2022/09/23 09:03:56;;;;;;;7.40;4.05;;;;;;;34.90;21.82;100756.94;5012599;28;20718;-63
2022/09/23 09:06:30;;;;;;;5.90;4.00;;;;;;;35.12;21.22;100751.56;5013299;28;20618;-64
2022/09/23 09:09:01;;;;;;;7.43;4.03;;;;;;;34.97;21.34;100754.59;5012875;28;20566;-63
2022/09/23 09:11:35;;;;;;;8.80;3.92;;;;;;;34.67;21.17;100751.22;5016484;28;20244;-64
2022/09/23 09:14:17;;;;;;;8.48;4.50;;;;;;;33.53;21.79;100742.44;5013730;28;20204;-64
2022/09/23 09:16:54;;;;;;;6.57;4.88;;;;;;;31.55;24.14;100732.22;5013743;28;20244;-63
2022/09/23 09:19:50;;;;;;;7.35;5.32;;;;;;;28.47;27.18;100736.59;5011913;28;20233;-63
2022/09/23 09:22:24;;;;;;;11.50;5.55;;;;;;;25.68;31.18;100745.25;5007899;28;20407;-63
2022/09/23 09:24:57;;;;;;;10.88;5.43;;;;;;;23.52;34.14;100743.84;5011983;28;20233;-63
2022/09/23 09:27:25;;;;;;;11.15;5.60;;;;;;;21.94;36.88;100745.09;5013588;28;20217;-63
2022/09/23 09:29:55;;;;;;;8.45;5.72;;;;;;;20.93;39.40;100742.06;5013016;28;20232;-63
2022/09/23 09:32:33;;;;;;;11.73;5.43;;;;;;;20.11;41.14;100749.66;5012054;28;20248;-63
2022/09/23 09:35:07;;;;;;;8.23;5.85;;;;;;;19.44;43.12;100742.31;5005145;28;20290;-63
2022/09/23 09:37:41;;;;;;;9.43;5.68;;;;;;;19.01;44.08;100739.78;5013444;28;20209;-64
2022/09/23 09:40:11;;;;;;;10.77;6.13;;;;;;;18.64;44.91;100735.63;5012605;28;20737;-63
2022/09/23 09:42:41;;;;;;;10.87;6.40;;;;;;;18.30;46.33;100735.44;5013076;28;20297;-63
2022/09/23 09:45:18;;;;;;;11.23;6.37;;;;;;;18.05;47.19;100732.31;5016156;28;20796;-63
2022/09/23 09:47:56;;;;;;;12.33;5.93;;;;;;;17.91;47.65;100722.47;5012425;28;20724;-63
2022/09/23 09:50:43;;;;;;;10.03;6.00;;;;;;;17.71;48.71;100716.03;5013035;28;20534;-64
2022/09/23 09:53:23;;;;;;;11.53;6.67;;;;;;;17.58;49.66;100706.81;5013465;28;20210;-64
2022/09/23 09:56:05;;;;;;;13.97;6.67;;;;;;;17.53;49.90;100701.16;5012621;28;20207;-63
2022/09/23 09:58:42;;;;;;;9.97;5.83;;;;;;;17.45;50.50;100698.59;5013123;28;20209;-63
2022/09/23 10:01:19;;;;;;;14.10;8.10;;;;;;;17.48;49.94;100698.22;5005281;28;20656;-63
2022/09/23 10:03:48;;;;;;;14.43;7.40;;;;;;;17.50;50.42;100698.84;5013361;28;20568;-63
2022/09/23 10:06:19;;;;;;;9.47;7.10;;;;;;;17.55;50.32;100693.75;5013157;28;20216;-64
2022/09/23 10:09:04;;;;;;;11.63;7.03;;;;;;;17.72;50.02;100696.25;5013282;28;20217;-62
2022/09/23 10:11:32;;;;;;;11.13;7.70;;;;;;;17.83;49.93;100696.59;5002377;28;20320;-62
2022/09/23 10:14:04;;;;;;;15.03;7.20;;;;;;;17.93;49.49;100701.66;5011518;28;20217;-63
2022/09/23 10:16:34;;;;;;;13.13;7.57;;;;;;;17.85;49.59;100694.56;5013257;28;20669;-63
2022/09/23 10:19:03;;;;;;;13.80;7.73;;;;;;;17.78;50.25;100696.31;5013330;28;20209;-62
2022/09/23 10:21:36;;;;;;;15.43;8.10;;;;;;;17.59;50.16;100687.00;5005463;28;20228;-63
2022/09/23 10:24:07;;;;;;;13.40;7.67;;;;;;;17.52;51.04;100696.81;5005883;28;20214;-63
2022/09/23 10:26:51;;;;;;;14.30;7.40;;;;;;;17.33;51.83;100692.03;5012181;28;20264;-63
2022/09/23 10:29:24;;;;;;;12.40;8.17;;;;;;;17.39;51.50;100691.31;5012590;28;20259;-63
2022/09/23 10:32:18;;;;;;;14.80;7.37;;;;;;;17.40;51.17;100689.44;5010152;28;20246;-63
2022/09/23 10:34:51;;;;;;;15.67;6.97;;;;;;;17.33;51.43;100686.66;5011717;28;20713;-63
2022/09/23 10:37:31;;;;;;;13.37;7.73;;;;;;;17.31;52.19;100680.69;5012990;28;20306;-62
2022/09/23 10:49:07;;;;;;;12.50;7.03;;;;;;;18.47;48.85;100671.59;5012035;28;20205;-64
2022/09/23 10:51:44;;;;;;;11.63;6.30;;;;;;;18.77;48.57;100665.03;5011749;28;20220;-63
2022/09/23 10:54:21;;;;;;;9.67;6.73;;;;;;;18.87;47.85;100667.38;5012628;28;20249;-63
2022/09/23 10:56:54;;;;;;;15.17;7.57;;;;;;;19.34;47.39;100666.59;5011326;28;20761;-64
2022/09/23 10:59:48;;;;;;;9.47;6.03;;;;;;;19.51;47.08;100670.63;5010760;28;20638;-64
2022/09/23 11:02:40;;;;;;;13.37;6.57;;;;;;;19.39;46.39;100664.13;5011886;28;20216;-63
2022/09/23 11:05:19;;;;;;;11.03;5.93;;;;;;;19.43;46.40;100668.06;5010364;28;20212;-63
2022/09/23 11:07:56;;;;;;;11.17;6.87;;;;;;;19.38;46.70;100652.53;5011068;28;20213;-63
2022/09/23 11:10:48;;;;;;;14.03;6.97;;;;;;;19.44;46.73;100653.56;5006014;28;20590;-64
2022/09/23 11:13:34;;;;;;;10.13;6.17;;;;;;;19.53;46.67;100652.41;5011942;28;20220;-64
2022/09/23 11:16:11;;;;;;;8.23;5.60;;;;;;;19.56;46.76;100652.00;5008800;28;20201;-64
2022/09/23 11:18:52;;;;;;;12.57;6.37;;;;;;;19.54;46.67;100643.31;5022452;28;20209;-63
2022/09/23 11:21:37;;;;;;;11.63;6.50;;;;;;;19.67;46.04;100642.53;5013107;28;20244;-64
2022/09/23 11:24:23;;;;;;;12.63;5.73;;;;;;;19.66;47.12;100641.69;5010377;28;20217;-64
2022/09/23 11:27:06;;;;;;;9.87;5.10;;;;;;;19.95;46.39;100643.22;5011506;28;20209;-64
2022/09/23 11:30:10;;;;;;;8.33;4.77;;;;;;;20.57;44.64;100639.31;5014132;28;20213;-64
2022/09/23 11:33:13;;;;;;;9.13;4.10;;;;;;;21.33;42.96;100634.97;4957026;28;20348;-63
2022/09/23 11:35:46;;;;;;;6.15;4.07;;;;;;;21.55;41.49;100631.97;4929364;29;20219;-64
2022/09/23 11:38:20;;;;;;;9.52;4.50;;;;;;;21.42;42.02;100632.84;4994988;28;20216;-63
2022/09/23 11:40:53;;;;;;;9.68;5.10;;;;;;;21.20;42.06;100624.22;5008930;28;20233;-64
2022/09/23 11:43:23;;;;;;;8.10;4.57;;;;;;;20.98;42.25;100622.84;5009865;28;20233;-64
2022/09/23 11:45:58;;;;;;;6.95;3.67;;;;;;;20.79;43.45;100618.31;5008942;28;21212;-62
2022/09/23 11:48:33;;;;;;;8.85;4.05;;;;;;;20.70;43.54;100608.81;5011514;28;20300;-63
2022/09/23 11:51:04;;;;;;;7.77;3.70;;;;;;;20.46;44.31;100619.22;5012291;28;20616;-63
2022/09/23 11:53:40;;;;;;;6.43;3.73;;;;;;;20.34;44.08;100610.09;5012013;28;20228;-63
2022/09/23 11:56:16;;;;;;;6.60;3.73;;;;;;;20.15;44.82;100602.81;5003228;28;20220;-63
2022/09/23 11:59:03;;;;;;;8.20;4.20;;;;;;;20.04;45.33;100606.16;5011734;28;20300;-63